Ljuberzy, Russia
Current Conditions -  °F | °C
As of 6:30 AM on Saturday 01 Nov 2014 (Local Time) from UUDD Reporting Station
Broken Clouds Broken Clouds  
Wind Chill: 30°   Ceiling: 1600
Heat Index: 34°   Visibility: 6mi
Dew Point: 30°   Wind: 4mph
Humidity: 87%   Direction: 300°WNW
Pressure: 30.03"   Gusts: NA
Location:  55.67°N, 37.92°E
Report Text: UUDD 010330Z 30002MPS 9999 BKN016 01/M01 Q1017 3201009582010095 NOSIG
Loading
Personal Weather Stations






























Interactive Weather Map
Tropical Storm Tracking
New forecast layout! Learn more

10-Day Weather Forecast

Advertisements
Track Severe Weather on mobile